| time (UTC) | temp F | wind direction | speed MPH | gust MPH | rain 1hr in | rain 24hr in | rain mn in | humidity % | barometer mb |
| 20260905132605 | 74 | 168 | 2.0 | 11.0 | 0.00 | 0.00 | 0.04 | 81 | 1012.2 |
| 20260905132104 | 74 | 142 | 4.0 | 11.0 | 0.00 | 0.00 | 0.04 | 82 | 1012.4 |
| 20260905131604 | 74 | 142 | 4.0 | 11.0 | 0.00 | 0.00 | 0.04 | 82 | 1012.4 |
| 20260905125517 | 72 | 83 | 1.0 | 11.0 | 0.00 | 0.00 | 0.04 | 85 | 1012.0 |
| 20260905125017 | 72 | 153 | 1.0 | 11.0 | 0.00 | 0.00 | 0.04 | 86 | 1012.2 |
| 20260905124517 | 72 | 150 | 2.0 | 11.0 | 0.00 | 0.00 | 0.04 | 86 | 1012.1 |
| 20260905124017 | 71 | 165 | 3.0 | 11.0 | 0.00 | 0.00 | 0.04 | 86 | 1011.9 |
| 20260905123516 | 71 | 151 | 3.0 | 11.0 | 0.00 | 0.00 | 0.04 | 87 | 1011.8 |
| 20260905123016 | 71 | 136 | 1.0 | 11.0 | 0.00 | 0.00 | 0.04 | 87 | 1012.2 |
| 20260905122515 | 71 | 147 | 4.0 | 11.0 | 0.00 | 0.00 | 0.04 | 87 | 1012.0 |
| 20260905122014 | 71 | 172 | 0.0 | 11.0 | 0.00 | 0.00 | 0.04 | 88 | 1011.9 |
| 20260905121513 | 70 | 111 | 1.0 | 11.0 | 0.00 | 0.00 | 0.04 | 88 | 1012.1 |
| 20260905121013 | 70 | 195 | 1.0 | 11.0 | 0.00 | 0.00 | 0.04 | 88 | 1012.4 |
| 20260905120512 | 70 | 103 | 1.0 | 11.0 | 0.00 | 0.00 | 0.04 | 88 | 1012.6 |
| 20260905120012 | 70 | 80 | 2.0 | 11.0 | 0.03 | 0.00 | 0.04 | 88 | 1012.1 |
| 20260905115511 | 70 | 78 | 2.0 | 11.0 | 0.04 | 0.00 | 0.04 | 88 | 1012.1 |
| 20260905114454 | 71 | 88 | 1.0 | 11.0 | 0.04 | 0.00 | 0.04 | 88 | 1012.0 |
| 20260905113954 | 71 | 98 | 2.0 | 11.0 | 0.04 | 0.00 | 0.04 | 88 | 1012.3 |
| 20260905113453 | 71 | 74 | 2.0 | 11.0 | 0.04 | 0.00 | 0.04 | 88 | 1011.9 |
| 20260905112952 | 71 | 85 | 2.0 | 11.0 | 0.04 | 0.00 | 0.04 | 88 | 1011.9 |
| 20260905112451 | 71 | 65 | 4.0 | 11.0 | 0.04 | 0.00 | 0.04 | 88 | 1011.9 |
| 20260905111950 | 71 | 84 | 3.0 | 11.0 | 0.04 | 0.00 | 0.04 | 88 | 1012.3 |
| 20260905111449 | 71 | 99 | 2.0 | 11.0 | 0.04 | 0.00 | 0.04 | 87 | 1011.7 |
| 20260905110949 | 72 | 73 | 3.0 | 11.0 | 0.04 | 0.00 | 0.04 | 86 | 1012.1 |
| 20260905110448 | 72 | 73 | 4.0 | 11.0 | 0.04 | 0.00 | 0.04 | 85 | 1011.8 |
| 20260905105948 | 73 | 43 | 4.0 | 11.0 | 0.04 | 0.00 | 0.04 | 84 | 1012.0 |
| 20260905105448 | 73 | 78 | 2.0 | 12.0 | 0.00 | 0.00 | 0.00 | 82 | 1012.1 |
| 20260905104947 | 73 | 76 | 3.0 | 12.0 | 0.00 | 0.00 | 0.00 | 81 | 1012.5 |
| 20260905104447 | 73 | 71 | 3.0 | 12.0 | 0.00 | 0.00 | 0.00 | 81 | 1012.2 |
| 20260905102915 | 74 | 44 | 6.0 | 16.0 | 0.00 | 0.00 | 0.00 | 80 | 1012.3 |
| 20260905101859 | 75 | 101 | 4.0 | 15.0 | 0.00 | 0.00 | 0.00 | 83 | 1012.1 |
| 20260905101358 | 75 | 36 | 8.0 | 15.0 | 0.00 | 0.00 | 0.00 | 87 | 1011.7 |
| 20260905100342 | 76 | 221 | 0.0 | 11.0 | 0.00 | 0.00 | 0.00 | 91 | 1011.2 |
| 20260905095842 | 76 | 221 | 0.0 | 11.0 | 0.00 | 0.00 | 0.00 | 91 | 1011.1 |
| 20260905094827 | 76 | 221 | 0.0 | 11.0 | 0.00 | 0.00 | 0.00 | 91 | 1010.8 |
| 20260905094327 | 76 | 221 | 0.0 | 11.0 | 0.00 | 0.00 | 0.00 | 91 | 1011.2 |
| 20260905093827 | 76 | 221 | 0.0 | 11.0 | 0.00 | 0.00 | 0.00 | 91 | 1011.3 |
| 20260905093326 | 76 | 220 | 0.0 | 11.0 | 0.00 | 0.00 | 0.00 | 91 | 1010.8 |
| 20260905092826 | 76 | 220 | 0.0 | 11.0 | 0.00 | 0.00 | 0.00 | 91 | 1010.9 |
| 20260905092326 | 77 | 220 | 0.0 | 11.0 | 0.00 | 0.00 | 0.00 | 91 | 1010.9 |
| 20260905091826 | 77 | 220 | 0.0 | 11.0 | 0.00 | 0.00 | 0.00 | 90 | 1010.9 |
| 20260905090811 | 77 | 220 | 0.0 | 11.0 | 0.00 | 0.00 | 0.00 | 90 | 1010.8 |
| 20260905090310 | 77 | 220 | 0.0 | 11.0 | 0.00 | 0.00 | 0.00 | 90 | 1010.9 |
| 20260905085810 | 77 | 220 | 0.0 | 11.0 | 0.00 | 0.00 | 0.00 | 90 | 1010.9 |
| 20260905085310 | 77 | 220 | 0.0 | 11.0 | 0.00 | 0.00 | 0.00 | 90 | 1010.8 |
| 20260905084809 | 77 | 220 | 0.0 | 11.0 | 0.00 | 0.00 | 0.00 | 89 | 1011.0 |
| 20260905083237 | 77 | 220 | 0.0 | 11.0 | 0.00 | 0.00 | 0.00 | 89 | 1011.0 |
| 20260905082737 | 77 | 220 | 0.0 | 11.0 | 0.00 | 0.00 | 0.00 | 89 | 1010.8 |
| 20260905082237 | 77 | 220 | 0.0 | 11.0 | 0.00 | 0.00 | 0.00 | 88 | 1010.8 |
| 20260905081736 | 78 | 220 | 0.0 | 11.0 | 0.00 | 0.00 | 0.00 | 88 | 1010.7 |
| 20260905081236 | 78 | 220 | 0.0 | 11.0 | 0.00 | 0.00 | 0.00 | 89 | 1010.8 |
| 20260905080736 | 78 | 220 | 0.0 | 11.0 | 0.00 | 0.00 | 0.00 | 89 | 1010.6 |
| 20260905080235 | 77 | 220 | 0.0 | 11.0 | 0.00 | 0.00 | 0.00 | 89 | 1010.8 |
| 20260905075735 | 77 | 220 | 0.0 | 11.0 | 0.00 | 0.00 | 0.00 | 88 | 1010.3 |
| 20260905075235 | 77 | 220 | 0.0 | 11.0 | 0.00 | 0.00 | 0.00 | 88 | 1010.2 |
| 20260905074219 | 78 | 220 | 0.0 | 11.0 | 0.00 | 0.00 | 0.00 | 88 | 1010.1 |
| 20260905073718 | 78 | 220 | 1.0 | 11.0 | 0.00 | 0.00 | 0.00 | 88 | 1010.1 |
| 20260905073218 | 78 | 177 | 1.0 | 11.0 | 0.00 | 0.00 | 0.00 | 88 | 1009.8 |
| 20260905072717 | 78 | 198 | 2.0 | 11.0 | 0.00 | 0.00 | 0.00 | 88 | 1010.1 |
| 20260905072216 | 78 | 207 | 2.0 | 11.0 | 0.00 | 0.00 | 0.00 | 88 | 1010.0 |
| 20260905071716 | 78 | 204 | 1.0 | 11.0 | 0.00 | 0.00 | 0.00 | 88 | 1010.1 |
| 20260905071215 | 78 | 204 | 0.0 | 11.0 | 0.00 | 0.00 | 0.00 | 88 | 1010.0 |
| 20260905070714 | 78 | 204 | 1.0 | 11.0 | 0.00 | 0.00 | 0.00 | 88 | 1010.2 |
| 20260905070211 | 78 | 204 | 1.0 | 11.0 | 0.00 | 0.00 | 0.00 | 87 | 1010.1 |
| 20260905065154 | 78 | 190 | 1.0 | 11.0 | 0.00 | 0.00 | 0.00 | 87 | 1010.0 |
| 20260905064139 | 78 | 201 | 2.0 | 11.0 | 0.00 | 0.00 | 0.00 | 87 | 1010.4 |
| 20260905063639 | 78 | 193 | 2.0 | 11.0 | 0.00 | 0.00 | 0.00 | 87 | 1010.5 |
| 20260905063139 | 78 | 213 | 2.0 | 11.0 | 0.00 | 0.00 | 0.00 | 87 | 1010.8 |
| 20260905062638 | 78 | 197 | 0.0 | 11.0 | 0.00 | 0.00 | 0.00 | 87 | 1010.5 |
| 20260905061622 | 78 | 199 | 1.0 | 11.0 | 0.00 | 0.00 | 0.00 | 86 | 1010.9 |
| 20260905061122 | 78 | 200 | 0.0 | 11.0 | 0.00 | 0.00 | 0.00 | 86 | 1010.5 |
| 20260905060621 | 78 | 199 | 2.0 | 11.0 | 0.00 | 0.00 | 0.00 | 86 | 1011.1 |
| 20260905055605 | 78 | 196 | 2.0 | 11.0 | 0.00 | 0.00 | 0.00 | 87 | 1010.9 |
| 20260905055105 | 78 | 197 | 1.0 | 11.0 | 0.00 | 0.00 | 0.00 | 87 | 1011.4 |
| 20260905053017 | 78 | 187 | 0.0 | 11.0 | 0.00 | 0.00 | 0.00 | 87 | 1011.2 |
| 20260905052518 | 78 | 179 | 1.0 | 11.0 | 0.00 | 0.00 | 0.00 | 87 | 1011.4 |
| 20260905051502 | 78 | 159 | 0.0 | 11.0 | 0.00 | 0.00 | 0.00 | 87 | 1011.4 |
| 20260905051002 | 78 | 159 | 1.0 | 11.0 | 0.00 | 0.00 | 0.00 | 87 | 1011.2 |
| 20260905050502 | 78 | 159 | 1.0 | 11.0 | 0.00 | 0.00 | 0.00 | 87 | 1011.2 |
| 20260905050003 | 78 | 158 | 0.0 | 11.0 | 0.00 | 0.00 | 0.00 | 87 | 1011.2 |
| 20260905045502 | 78 | 158 | 0.0 | 11.0 | 0.00 | 0.00 | 0.00 | 86 | 1011.6 |
| 20260905045002 | 78 | 158 | 0.0 | 11.0 | 0.00 | 0.00 | 0.00 | 86 | 1011.6 |
| 20260905043431 | 78 | 158 | 0.0 | 11.0 | 0.00 | 0.00 | 0.00 | 86 | 1011.5 |
| 20260905042930 | 78 | 158 | 0.0 | 11.0 | 0.00 | 0.00 | 0.00 | 86 | 1011.3 |
| 20260905042429 | 78 | 158 | 0.0 | 11.0 | 0.00 | 0.00 | 0.00 | 86 | 1011.3 |
| 20260905041928 | 78 | 158 | 0.0 | 11.0 | 0.00 | 0.00 | 0.00 | 86 | 1011.4 |
| 20260905041427 | 78 | 157 | 1.0 | 11.0 | 0.00 | 0.00 | 0.00 | 87 | 1011.5 |
| 20260905040927 | 78 | 156 | 0.0 | 11.0 | 0.00 | 0.00 | 0.00 | 87 | 1011.3 |
| 20260905040426 | 78 | 156 | 0.0 | 11.0 | 0.00 | 0.00 | 0.00 | 86 | 1011.7 |
| 20260905035411 | 78 | 156 | 0.0 | 11.0 | 0.00 | 0.00 | 0.00 | 86 | 1011.6 |
| 20260905034911 | 78 | 156 | 0.0 | 11.0 | 0.00 | 0.00 | 0.00 | 86 | 1011.4 |
| 20260905034410 | 78 | 156 | 0.0 | 11.0 | 0.00 | 0.00 | 0.00 | 86 | 1011.8 |
| 20260905033910 | 78 | 156 | 0.0 | 11.0 | 0.00 | 0.00 | 0.00 | 86 | 1011.5 |
| 20260905033411 | 78 | 156 | 0.0 | 11.0 | 0.00 | 0.00 | 0.00 | 86 | 1011.9 |
| 20260905032355 | 78 | 156 | 0.0 | 11.0 | 0.00 | 0.00 | 0.00 | 86 | 1011.4 |
| 20260905031853 | 79 | 156 | 0.0 | 11.0 | 0.00 | 0.00 | 0.00 | 85 | 1011.6 |
| 20260905031352 | 79 | 156 | 0.0 | 11.0 | 0.00 | 0.00 | 0.00 | 85 | 1011.7 |
| 20260905030852 | 79 | 156 | 0.0 | 11.0 | 0.00 | 0.00 | 0.00 | 85 | 1011.6 |
| 20260905025837 | 79 | 156 | 0.0 | 11.0 | 0.00 | 0.00 | 0.00 | 85 | 1011.6 |
| 20260905025337 | 79 | 156 | 0.0 | 11.0 | 0.00 | 0.00 | 0.00 | 85 | 1011.4 |
| 20260905024322 | 79 | 156 | 0.0 | 11.0 | 0.00 | 0.00 | 0.00 | 84 | 1011.4 |
| 20260905023822 | 80 | 156 | 1.0 | 11.0 | 0.00 | 0.00 | 0.00 | 85 | 1011.4 |
| 20260905023322 | 80 | 156 | 0.0 | 11.0 | 0.00 | 0.00 | 0.00 | 84 | 1011.4 |
| 20260905022821 | 80 | 156 | 0.0 | 11.0 | 0.00 | 0.00 | 0.00 | 84 | 1011.5 |
| 20260905022321 | 80 | 156 | 0.0 | 11.0 | 0.00 | 0.00 | 0.00 | 84 | 1011.3 |
| 20260905021821 | 80 | 156 | 1.0 | 11.0 | 0.00 | 0.00 | 0.00 | 83 | 1011.4 |
| 20260905021321 | 80 | 182 | 0.0 | 11.0 | 0.00 | 0.00 | 0.00 | 83 | 1011.2 |
| 20260905020820 | 80 | 191 | 0.0 | 11.0 | 0.00 | 0.00 | 0.00 | 83 | 1011.6 |
| 20260905020319 | 80 | 191 | 0.0 | 11.0 | 0.00 | 0.00 | 0.00 | 83 | 1011.7 |
| 20260905015819 | 80 | 191 | 0.0 | 11.0 | 0.00 | 0.00 | 0.00 | 83 | 1011.4 |
| 20260905015319 | 80 | 191 | 0.0 | 11.0 | 0.00 | 0.00 | 0.00 | 83 | 1011.4 |
| 20260905013746 | 80 | 191 | 0.0 | 11.0 | 0.00 | 0.00 | 0.00 | 84 | 1011.5 |
| 20260905013246 | 80 | 191 | 0.0 | 11.0 | 0.00 | 0.00 | 0.00 | 84 | 1011.2 |
| 20260905012230 | 80 | 189 | 0.0 | 11.0 | 0.00 | 0.00 | 0.00 | 84 | 1011.2 |
| 20260905011729 | 81 | 188 | 0.0 | 11.0 | 0.00 | 0.00 | 0.00 | 83 | 1011.2 |
| 20260905011225 | 81 | 188 | 0.0 | 11.0 | 0.00 | 0.00 | 0.00 | 83 | 1010.9 |
| 20260905010725 | 81 | 175 | 1.0 | 11.0 | 0.00 | 0.00 | 0.00 | 83 | 1011.0 |
| 20260905010224 | 81 | 140 | 0.0 | 11.0 | 0.00 | 0.00 | 0.00 | 83 | 1011.1 |
| 20260905005724 | 81 | 141 | 1.0 | 11.0 | 0.00 | 0.00 | 0.00 | 82 | 1011.1 |
| 20260905005223 | 81 | 171 | 0.0 | 11.0 | 0.00 | 0.00 | 0.00 | 82 | 1010.9 |
| 20260905004723 | 81 | 171 | 0.0 | 11.0 | 0.00 | 0.00 | 0.00 | 83 | 1011.1 |
| 20260905004223 | 81 | 171 | 1.0 | 11.0 | 0.00 | 0.00 | 0.00 | 83 | 1010.5 |
| 20260905003721 | 81 | 169 | 0.0 | 11.0 | 0.00 | 0.00 | 0.00 | 83 | 1010.8 |
| 20260905003221 | 82 | 164 | 1.0 | 11.0 | 0.00 | 0.00 | 0.00 | 83 | 1010.9 |
| 20260905002720 | 82 | 151 | 2.0 | 11.0 | 0.00 | 0.00 | 0.00 | 82 | 1010.6 |
| 20260905002219 | 82 | 138 | 0.0 | 11.0 | 0.00 | 0.00 | 0.00 | 82 | 1011.0 |
| 20260905001202 | 82 | 130 | 0.0 | 11.0 | 0.00 | 0.00 | 0.00 | 82 | 1010.8 |
| 20260905000702 | 83 | 164 | 0.0 | 11.0 | 0.00 | 0.00 | 0.00 | 83 | 1011.0 |
| 20260905000204 | 83 | 164 | 2.0 | 11.0 | 0.00 | 0.00 | 0.00 | 81 | 1010.7 |
| 20260904235700 | 84 | 151 | 0.0 | 11.0 | 0.00 | 0.00 | 0.00 | 82 | 1011.0 |
| 20260904234644 | 85 | 149 | 0.0 | 11.0 | 0.00 | 0.00 | 0.00 | 81 | 1010.8 |
| 20260904234143 | 85 | 144 | 1.0 | 11.0 | 0.00 | 0.00 | 0.00 | 80 | 1010.9 |
| 20260904233643 | 86 | 159 | 3.0 | 11.0 | 0.00 | 0.00 | 0.00 | 79 | 1010.6 |
| 20260904233142 | 86 | 82 | 2.0 | 11.0 | 0.00 | 0.00 | 0.00 | 77 | 1010.9 |
| 20260904232127 | 88 | 146 | 1.0 | 11.0 | 0.00 | 0.00 | 0.00 | 75 | 1010.3 |
| 20260904231112 | 89 | 87 | 1.0 | 11.0 | 0.00 | 0.00 | 0.00 | 73 | 1011.1 |
| 20260904230611 | 89 | 79 | 1.0 | 11.0 | 0.00 | 0.00 | 0.00 | 72 | 1010.6 |
| 20260904230110 | 89 | 81 | 0.0 | 11.0 | 0.00 | 0.00 | 0.00 | 72 | 1010.5 |
| 20260904225610 | 90 | 80 | 0.0 | 11.0 | 0.00 | 0.00 | 0.00 | 71 | 1010.7 |
| 20260904225109 | 90 | 65 | 1.0 | 11.0 | 0.00 | 0.00 | 0.00 | 70 | 1010.8 |
| 20260904224609 | 91 | 90 | 0.0 | 11.0 | 0.00 | 0.00 | 0.00 | 69 | 1010.8 |
| 20260904224109 | 91 | 359 | 0.0 | 11.0 | 0.00 | 0.00 | 0.00 | 68 | 1010.9 |
| 20260904223609 | 91 | 114 | 0.0 | 11.0 | 0.00 | 0.00 | 0.00 | 68 | 1010.7 |
| 20260904222554 | 91 | 141 | 2.0 | 11.0 | 0.00 | 0.00 | 0.00 | 67 | 1012.3 |
| 20260904221022 | 92 | 78 | 3.0 | 11.0 | 0.00 | 0.00 | 0.00 | 66 | 1011.5 |
| 20260904220522 | 92 | 147 | 2.0 | 11.0 | 0.00 | 0.00 | 0.00 | 66 | 1011.7 |
| 20260904220022 | 92 | 157 | 1.0 | 11.0 | 0.00 | 0.00 | 0.00 | 65 | 1011.0 |
| 20260904215522 | 92 | 59 | 1.0 | 11.0 | 0.00 | 0.00 | 0.00 | 65 | 1010.9 |
| 20260904215022 | 92 | 110 | 0.0 | 11.0 | 0.00 | 0.00 | 0.00 | 64 | 1011.0 |
| 20260904214521 | 93 | 162 | 2.0 | 11.0 | 0.00 | 0.00 | 0.00 | 63 | 1010.8 |
| 20260904214021 | 93 | 104 | 1.0 | 11.0 | 0.00 | 0.00 | 0.00 | 63 | 1011.0 |
| 20260904213521 | 93 | 87 | 1.0 | 11.0 | 0.00 | 0.00 | 0.00 | 62 | 1011.2 |
| 20260904213021 | 93 | 62 | 3.0 | 11.0 | 0.00 | 0.00 | 0.00 | 62 | 1011.6 |
| 20260904212521 | 93 | 46 | 3.0 | 11.0 | 0.00 | 0.00 | 0.00 | 61 | 1011.9 |
| 20260904212021 | 93 | 65 | 1.0 | 11.0 | 0.00 | 0.00 | 0.00 | 60 | 1011.5 |
| 20260904211521 | 92 | 68 | 2.0 | 11.0 | 0.00 | 0.00 | 0.00 | 63 | 1011.5 |
| 20260904211021 | 91 | 74 | 0.0 | 11.0 | 0.00 | 0.00 | 0.00 | 64 | 1011.1 |
| 20260904210521 | 91 | 57 | 1.0 | 11.0 | 0.00 | 0.00 | 0.00 | 65 | 1011.1 |
| 20260904210021 | 91 | 45 | 7.0 | 11.0 | 0.00 | 0.00 | 0.00 | 65 | 1011.0 |
| 20260904205521 | 91 | 143 | 1.0 | 13.0 | 0.00 | 0.00 | 0.00 | 66 | 1010.6 |
| 20260904205020 | 91 | 183 | 4.0 | 13.0 | 0.00 | 0.00 | 0.00 | 66 | 1011.2 |
| 20260904204519 | 91 | 102 | 2.0 | 13.0 | 0.00 | 0.00 | 0.00 | 65 | 1011.1 |
| 20260904204019 | 91 | 162 | 1.0 | 13.0 | 0.00 | 0.00 | 0.00 | 65 | 1011.2 |
| 20260904203519 | 91 | 143 | 2.0 | 13.0 | 0.00 | 0.00 | 0.00 | 65 | 1011.2 |
| 20260904203019 | 91 | 145 | 3.0 | 13.0 | 0.00 | 0.00 | 0.00 | 63 | 1011.3 |
| 20260904202518 | 91 | 155 | 2.0 | 13.0 | 0.00 | 0.00 | 0.00 | 61 | 1011.5 |
| 20260904202018 | 92 | 162 | 3.0 | 13.0 | 0.00 | 0.00 | 0.00 | 61 | 1011.6 |
| 20260904201517 | 94 | 142 | 5.0 | 13.0 | 0.00 | 0.00 | 0.00 | 59 | 1011.3 |
| 20260904201017 | 95 | 162 | 4.0 | 13.0 | 0.00 | 0.00 | 0.00 | 57 | 1011.6 |
| 20260904200517 | 96 | 173 | 3.0 | 13.0 | 0.00 | 0.00 | 0.00 | 55 | 1011.7 |
| 20260904200017 | 97 | 188 | 3.0 | 13.0 | 0.00 | 0.00 | 0.00 | 53 | 1011.4 |
| 20260904195517 | 97 | 174 | 2.0 | 13.0 | 0.00 | 0.00 | 0.00 | 53 | 1012.0 |
| 20260904195016 | 97 | 141 | 4.0 | 13.0 | 0.00 | 0.00 | 0.00 | 54 | 1011.4 |
| 20260904194516 | 97 | 170 | 3.0 | 13.0 | 0.00 | 0.00 | 0.00 | 53 | 1011.6 |
| 20260904194015 | 97 | 220 | 2.0 | 13.0 | 0.00 | 0.00 | 0.00 | 53 | 1011.8 |
| 20260904192444 | 97 | 298 | 4.0 | 11.0 | 0.00 | 0.00 | 0.00 | 53 | 1012.3 |
| 20260904191943 | 96 | 309 | 4.0 | 11.0 | 0.00 | 0.00 | 0.00 | 54 | 1012.1 |
| 20260904191442 | 95 | 312 | 4.0 | 11.0 | 0.00 | 0.00 | 0.00 | 54 | 1012.2 |
| 20260904190941 | 94 | 312 | 2.0 | 11.0 | 0.00 | 0.00 | 0.00 | 55 | 1013.1 |
| 20260904190440 | 94 | 332 | 1.0 | 11.0 | 0.00 | 0.00 | 0.00 | 54 | 1012.6 |
| 20260904185424 | 95 | 42 | 2.0 | 13.0 | 0.00 | 0.00 | 0.00 | 55 | 1012.3 |
| 20260904184921 | 97 | 301 | 3.0 | 13.0 | 0.00 | 0.00 | 0.00 | 52 | 1012.3 |
| 20260904184420 | 98 | 306 | 4.0 | 11.0 | 0.00 | 0.00 | 0.00 | 48 | 1012.7 |
| 20260904183919 | 99 | 291 | 4.0 | 11.0 | 0.00 | 0.00 | 0.00 | 46 | 1012.6 |
| 20260904183418 | 100 | 252 | 3.0 | 11.0 | 0.00 | 0.00 | 0.00 | 46 | 1013.0 |
| 20260904182918 | 100 | 253 | 3.0 | 11.0 | 0.00 | 0.00 | 0.00 | 45 | 1012.6 |
| 20260904182417 | 100 | 246 | 4.0 | 11.0 | 0.00 | 0.00 | 0.00 | 45 | 1012.9 |
| 20260904181917 | 99 | 277 | 2.0 | 11.0 | 0.00 | 0.00 | 0.00 | 46 | 1012.8 |
| 20260904181416 | 100 | 287 | 2.0 | 11.0 | 0.00 | 0.00 | 0.00 | 46 | 1012.9 |
| 20260904180915 | 100 | 258 | 4.0 | 11.0 | 0.00 | 0.00 | 0.00 | 45 | 1013.0 |
| 20260904180414 | 100 | 279 | 3.0 | 11.0 | 0.00 | 0.00 | 0.00 | 46 | 1013.1 |
| 20260904175914 | 100 | 238 | 2.0 | 11.0 | 0.00 | 0.00 | 0.00 | 46 | 1013.0 |
| 20260904175413 | 100 | 244 | 5.0 | 11.0 | 0.00 | 0.00 | 0.00 | 46 | 1013.1 |
| 20260904174912 | 99 | 240 | 5.0 | 11.0 | 0.00 | 0.00 | 0.00 | 46 | 1013.4 |
| 20260904173856 | 99 | 268 | 3.0 | 11.0 | 0.00 | 0.00 | 0.00 | 47 | 1013.3 |
| 20260904173355 | 98 | 250 | 4.0 | 11.0 | 0.00 | 0.00 | 0.00 | 49 | 1013.3 |
| 20260904172855 | 98 | 270 | 4.0 | 11.0 | 0.00 | 0.00 | 0.00 | 49 | 1013.5 |
| 20260904172354 | 98 | 277 | 2.0 | 11.0 | 0.00 | 0.00 | 0.00 | 49 | 1013.5 |
| 20260904171853 | 99 | 273 | 4.0 | 11.0 | 0.00 | 0.00 | 0.00 | 48 | 1013.4 |
| 20260904170837 | 99 | 286 | 4.0 | 11.0 | 0.00 | 0.00 | 0.00 | 50 | 1013.7 |
| 20260904170336 | 99 | 212 | 3.0 | 11.0 | 0.00 | 0.00 | 0.00 | 51 | 1013.4 |
| 20260904165836 | 99 | 256 | 4.0 | 11.0 | 0.00 | 0.00 | 0.00 | 50 | 1013.8 |
| 20260904165336 | 98 | 253 | 3.0 | 11.0 | 0.00 | 0.00 | 0.00 | 51 | 1014.0 |
| 20260904164320 | 98 | 229 | 5.0 | 12.0 | 0.00 | 0.00 | 0.00 | 52 | 1013.7 |
| 20260904163304 | 97 | 232 | 2.0 | 13.0 | 0.00 | 0.00 | 0.00 | 54 | 1013.8 |
| 20260904162803 | 96 | 265 | 5.0 | 13.0 | 0.00 | 0.00 | 0.00 | 54 | 1013.8 |
| 20260904162305 | 97 | 253 | 4.0 | 13.0 | 0.00 | 0.00 | 0.00 | 53 | 1013.7 |
| 20260904161802 | 97 | 267 | 5.0 | 13.0 | 0.00 | 0.00 | 0.00 | 54 | 1014.0 |
| 20260904161301 | 96 | 230 | 3.0 | 13.0 | 0.00 | 0.00 | 0.00 | 55 | 1013.7 |
| 20260904160800 | 96 | 215 | 3.0 | 13.0 | 0.00 | 0.00 | 0.00 | 55 | 1013.8 |
| 20260904160259 | 96 | 246 | 3.0 | 12.0 | 0.00 | 0.00 | 0.00 | 55 | 1013.6 |
| 20260904155243 | 96 | 217 | 4.0 | 12.0 | 0.00 | 0.00 | 0.00 | 55 | 1013.7 |
| 20260904154742 | 96 | 206 | 4.0 | 12.0 | 0.00 | 0.00 | 0.00 | 56 | 1013.8 |
| 20260904154242 | 95 | 229 | 3.0 | 12.0 | 0.00 | 0.00 | 0.00 | 56 | 1013.9 |
| 20260904153742 | 95 | 210 | 4.0 | 12.0 | 0.00 | 0.00 | 0.00 | 57 | 1013.9 |
| 20260904153242 | 94 | 237 | 4.0 | 12.0 | 0.00 | 0.00 | 0.00 | 58 | 1013.8 |
| 20260904152225 | 94 | 213 | 4.0 | 12.0 | 0.00 | 0.00 | 0.00 | 59 | 1014.0 |
| 20260904151724 | 94 | 213 | 4.0 | 12.0 | 0.00 | 0.00 | 0.00 | 59 | 1014.0 |
| 20260904151223 | 94 | 245 | 3.0 | 12.0 | 0.00 | 0.00 | 0.00 | 60 | 1013.9 |
| 20260904150722 | 93 | 245 | 3.0 | 12.0 | 0.00 | 0.00 | 0.00 | 60 | 1014.1 |
| 20260904150222 | 93 | 247 | 4.0 | 12.0 | 0.00 | 0.00 | 0.00 | 61 | 1013.7 |
| 20260904145722 | 92 | 215 | 3.0 | 12.0 | 0.00 | 0.00 | 0.00 | 62 | 1013.8 |
| 20260904145222 | 91 | 222 | 3.0 | 12.0 | 0.00 | 0.00 | 0.00 | 63 | 1014.0 |
| 20260904144722 | 91 | 218 | 4.0 | 12.0 | 0.00 | 0.00 | 0.00 | 63 | 1013.7 |
| 20260904144222 | 91 | 229 | 3.0 | 12.0 | 0.00 | 0.00 | 0.00 | 64 | 1013.9 |
| 20260904143721 | 91 | 208 | 5.0 | 12.0 | 0.00 | 0.00 | 0.00 | 64 | 1013.9 |
| 20260904142704 | 90 | 224 | 3.0 | 12.0 | 0.00 | 0.00 | 0.00 | 66 | 1013.4 |
| 20260904142204 | 89 | 217 | 2.0 | 12.0 | 0.00 | 0.00 | 0.00 | 67 | 1013.8 |
| 20260904141704 | 89 | 229 | 3.0 | 12.0 | 0.00 | 0.00 | 0.00 | 68 | 1013.6 |
| 20260904141204 | 88 | 214 | 3.0 | 12.0 | 0.00 | 0.00 | 0.00 | 68 | 1013.5 |
| 20260904140704 | 87 | 233 | 2.0 | 12.0 | 0.00 | 0.00 | 0.00 | 70 | 1013.7 |
| 20260904140204 | 87 | 236 | 3.0 | 12.0 | 0.00 | 0.00 | 0.00 | 71 | 1013.7 |
| 20260904135704 | 86 | 225 | 2.0 | 12.0 | 0.00 | 0.00 | 0.00 | 71 | 1013.7 |
| 20260904135203 | 86 | 235 | 2.0 | 12.0 | 0.00 | 0.00 | 0.00 | 72 | 1013.4 |
| 20260904134703 | 86 | 225 | 2.0 | 12.0 | 0.00 | 0.00 | 0.00 | 72 | 1013.5 |
| 20260904134203 | 86 | 227 | 2.0 | 12.0 | 0.00 | 0.00 | 0.00 | 74 | 1013.5 |